createdAt,value
2023-03-15T00:00:57.309Z,2.67
2023-03-15T00:03:25.716Z,2.00
2023-03-15T00:05:53.852Z,2.70
2023-03-15T00:08:22.864Z,3.20
2023-03-15T00:10:51.983Z,2.63
2023-03-15T00:13:19.934Z,2.75
2023-03-15T00:15:48.433Z,2.38
2023-03-15T00:18:17.049Z,2.15
2023-03-15T00:20:44.831Z,2.72
2023-03-15T00:23:12.818Z,3.08
2023-03-15T00:25:40.612Z,3.05
2023-03-15T00:28:09.905Z,3.20
2023-03-15T00:30:37.627Z,2.72
2023-03-15T00:33:06.022Z,2.45
2023-03-15T00:35:34.557Z,2.95
2023-03-15T00:38:02.315Z,2.35
2023-03-15T00:40:30.045Z,2.20
2023-03-15T00:42:57.854Z,2.28
2023-03-15T00:45:27.132Z,2.28
2023-03-15T00:47:55.466Z,2.13
2023-03-15T00:50:23.941Z,2.22
2023-03-15T00:52:51.684Z,1.90
2023-03-15T00:55:21.553Z,2.10
2023-03-15T00:57:49.546Z,2.30
2023-03-15T01:00:23.296Z,2.60
2023-03-15T01:02:52.980Z,2.10
2023-03-15T01:05:21.353Z,2.03
2023-03-15T01:07:49.366Z,2.05
2023-03-15T01:10:17.911Z,1.80
2023-03-15T01:12:46.254Z,2.38
2023-03-15T01:15:14.987Z,2.60
2023-03-15T01:17:43.369Z,2.38
2023-03-15T01:20:14.090Z,1.88
2023-03-15T01:22:41.996Z,1.88
2023-03-15T01:25:10.604Z,2.42
2023-03-15T01:27:38.474Z,2.65
2023-03-15T01:30:07.063Z,2.45
2023-03-15T01:32:35.325Z,2.38
2023-03-15T01:35:03.146Z,2.92
2023-03-15T01:37:34.039Z,1.38
2023-03-15T01:40:01.865Z,2.38
2023-03-15T01:42:29.812Z,1.95
2023-03-15T01:44:59.887Z,2.55
2023-03-15T01:47:28.692Z,2.28
2023-03-15T01:49:59.206Z,2.20
2023-03-15T01:52:30.332Z,1.92
2023-03-15T01:55:01.486Z,1.83
2023-03-15T01:57:31.782Z,2.50
2023-03-15T02:00:01.947Z,2.53
2023-03-15T02:02:30.299Z,2.00
2023-03-15T02:05:00.877Z,1.80
2023-03-15T02:07:30.213Z,2.13
2023-03-15T02:10:02.242Z,2.20
2023-03-15T02:12:32.504Z,1.63
2023-03-15T02:15:00.998Z,2.25
2023-03-15T02:17:31.605Z,2.00
2023-03-15T02:20:05.088Z,2.00
2023-03-15T02:22:38.048Z,1.80
2023-03-15T02:25:11.598Z,2.00
2023-03-15T02:27:40.890Z,1.73
2023-03-15T02:30:09.405Z,1.75
2023-03-15T02:32:37.428Z,2.65
2023-03-15T02:35:05.386Z,1.90
2023-03-15T02:37:33.368Z,1.73
2023-03-15T02:40:01.209Z,1.92
2023-03-15T02:42:29.541Z,1.77
2023-03-15T02:44:58.986Z,2.10
2023-03-15T02:47:28.870Z,1.95
2023-03-15T02:49:56.697Z,1.67
2023-03-15T02:52:24.472Z,1.65
2023-03-15T02:54:52.489Z,1.92
2023-03-15T02:57:21.214Z,1.98
2023-03-15T02:59:50.809Z,2.10
2023-03-15T03:02:20.485Z,2.28
2023-03-15T03:04:48.340Z,2.20
2023-03-15T03:07:16.504Z,2.20
2023-03-15T03:09:44.255Z,2.55
2023-03-15T03:12:12.180Z,2.20
2023-03-15T03:14:40.175Z,2.05
2023-03-15T03:17:08.448Z,1.58
2023-03-15T03:19:37.566Z,1.90
2023-03-15T03:22:05.632Z,1.73
2023-03-15T03:24:33.767Z,1.95
2023-03-15T03:27:01.805Z,1.38
2023-03-15T03:29:29.554Z,1.85
2023-03-15T03:31:57.324Z,2.17
2023-03-15T03:34:25.079Z,2.42
2023-03-15T03:36:54.165Z,1.73
2023-03-15T03:39:21.916Z,2.00
2023-03-15T03:41:50.167Z,1.92
2023-03-15T03:44:18.297Z,2.63
2023-03-15T03:46:46.051Z,2.33
2023-03-15T03:49:14.690Z,2.90
2023-03-15T03:51:42.446Z,1.88
2023-03-15T03:54:11.729Z,1.70
2023-03-15T03:56:40.090Z,1.88
2023-03-15T03:59:07.820Z,3.22
2023-03-15T04:01:35.572Z,2.17
2023-03-15T04:04:04.501Z,4.53
2023-03-15T04:06:32.362Z,1.92
2023-03-15T04:09:00.188Z,2.20
2023-03-15T04:11:30.135Z,2.13
2023-03-15T04:13:57.878Z,2.47
2023-03-15T04:16:26.008Z,3.58
2023-03-15T04:18:56.605Z,2.17
2023-03-15T04:21:24.730Z,1.83
2023-03-15T04:23:52.482Z,2.45
2023-03-15T04:26:20.410Z,2.72
2023-03-15T04:28:49.538Z,2.15
2023-03-15T04:31:17.345Z,2.33
2023-03-15T04:33:45.206Z,2.35
2023-03-15T04:36:18.614Z,2.58
2023-03-15T04:38:47.436Z,2.47
2023-03-15T04:41:15.382Z,2.28
2023-03-15T04:43:43.863Z,2.00
2023-03-15T04:46:13.246Z,1.58
2023-03-15T04:48:41.642Z,2.65
2023-03-15T04:51:11.649Z,2.63
2023-03-15T04:53:39.849Z,2.10
2023-03-15T04:56:08.312Z,2.30
2023-03-15T04:58:36.070Z,2.85
2023-03-15T05:01:04.132Z,2.40
2023-03-15T05:03:33.771Z,2.63
2023-03-15T05:06:08.329Z,3.17
2023-03-15T05:08:36.729Z,2.90
2023-03-15T05:11:05.018Z,3.30
2023-03-15T05:13:32.761Z,2.35
2023-03-15T05:16:00.544Z,2.97
2023-03-15T05:18:28.307Z,2.47
2023-03-15T05:20:57.437Z,2.10
2023-03-15T05:23:25.549Z,2.67
2023-03-15T05:25:54.808Z,3.35
2023-03-15T05:28:23.596Z,2.72
2023-03-15T05:30:52.055Z,3.53
2023-03-15T05:33:20.177Z,3.25
2023-03-15T05:35:48.237Z,3.55
2023-03-15T05:38:17.505Z,3.08
2023-03-15T05:40:45.576Z,2.85
2023-03-15T05:43:14.171Z,2.65
2023-03-15T05:45:42.230Z,3.53
2023-03-15T05:48:10.012Z,3.05
2023-03-15T05:50:37.798Z,2.75
2023-03-15T05:53:05.576Z,3.58
2023-03-15T05:55:36.159Z,2.83
2023-03-15T05:58:04.011Z,3.58
2023-03-15T06:00:31.823Z,3.80
2023-03-15T06:02:59.879Z,3.17
2023-03-15T06:05:29.775Z,2.88
2023-03-15T06:07:57.513Z,2.63
2023-03-15T06:10:25.450Z,3.25
2023-03-15T06:12:55.353Z,3.17
2023-03-15T06:15:23.367Z,3.10
2023-03-15T06:17:51.429Z,2.35
2023-03-15T06:20:20.550Z,2.85
2023-03-15T06:22:48.658Z,2.55
2023-03-15T06:25:16.755Z,2.50
2023-03-15T06:27:44.500Z,2.10
2023-03-15T06:30:16.892Z,2.42
2023-03-15T06:32:45.073Z,2.10
2023-03-15T06:35:13.307Z,2.63
2023-03-15T06:37:41.878Z,2.80
2023-03-15T06:40:11.563Z,3.20
2023-03-15T06:42:39.906Z,1.83
2023-03-15T06:45:08.543Z,2.13
2023-03-15T06:47:38.277Z,2.78
2023-03-15T06:50:06.685Z,3.40
2023-03-15T06:52:34.758Z,2.90
2023-03-15T06:55:02.981Z,2.08
2023-03-15T06:57:31.060Z,2.90
2023-03-15T06:59:58.813Z,2.60
2023-03-15T07:02:26.894Z,2.35
2023-03-15T07:04:56.288Z,2.53
2023-03-15T07:07:24.321Z,2.58
2023-03-15T07:09:54.246Z,2.72
2023-03-15T07:12:22.969Z,2.80
2023-03-15T07:14:50.812Z,2.67
2023-03-15T07:17:18.894Z,2.40
2023-03-15T07:19:56.207Z,2.53
2023-03-15T07:22:26.600Z,2.80
2023-03-15T07:24:54.357Z,6.35
2023-03-15T07:27:22.093Z,4.45
2023-03-15T07:29:49.908Z,6.35
2023-03-15T07:32:17.954Z,4.43
2023-03-15T07:34:45.714Z,4.15
2023-03-15T07:37:13.766Z,6.57
2023-03-15T07:39:42.827Z,5.88
2023-03-15T07:42:10.839Z,4.30
2023-03-15T07:44:38.555Z,3.67
2023-03-15T07:47:06.579Z,2.45
2023-03-15T07:49:35.232Z,3.65
2023-03-15T07:52:03.616Z,3.65
2023-03-15T07:54:31.983Z,4.50
2023-03-15T07:57:01.197Z,6.15
2023-03-15T07:59:29.037Z,5.13
2023-03-15T08:01:56.790Z,5.97
2023-03-15T08:04:24.508Z,5.60
2023-03-15T08:06:52.352Z,4.60
2023-03-15T08:09:20.109Z,3.63
2023-03-15T08:11:47.870Z,4.35
2023-03-15T08:14:17.200Z,3.92
2023-03-15T08:16:44.995Z,3.80
2023-03-15T08:19:12.863Z,3.33
2023-03-15T08:21:45.420Z,3.35
2023-03-15T08:24:13.449Z,3.60
2023-03-15T08:26:43.166Z,3.30
2023-03-15T08:29:11.424Z,3.80
2023-03-15T08:31:41.516Z,3.85
2023-03-15T08:34:09.714Z,3.47
2023-03-15T08:36:37.579Z,3.60
2023-03-15T08:39:05.530Z,3.92
2023-03-15T08:41:33.308Z,3.15
2023-03-15T08:44:01.062Z,3.00
2023-03-15T08:46:29.135Z,3.60
2023-03-15T08:48:58.215Z,2.78
2023-03-15T08:51:26.815Z,3.75
2023-03-15T08:53:54.594Z,4.22
2023-03-15T08:56:22.507Z,3.30
2023-03-15T08:58:50.233Z,4.22
2023-03-15T09:01:18.018Z,3.88
2023-03-15T09:03:45.731Z,3.58
2023-03-15T09:06:15.245Z,4.68
2023-03-15T09:08:43.017Z,4.00
2023-03-15T09:11:10.817Z,4.18
2023-03-15T09:13:38.766Z,3.75
2023-03-15T09:16:08.036Z,4.22
2023-03-15T09:18:35.818Z,4.03
2023-03-15T09:21:03.592Z,5.05
2023-03-15T09:23:37.347Z,4.20
2023-03-15T09:26:05.105Z,4.28
2023-03-15T09:28:34.163Z,4.10
2023-03-15T09:31:04.660Z,3.35
2023-03-15T09:33:33.171Z,3.50
2023-03-15T09:36:01.167Z,3.72
2023-03-15T09:38:29.001Z,3.42
2023-03-15T09:40:59.512Z,2.58
2023-03-15T09:43:41.072Z,2.83
2023-03-15T09:46:14.467Z,3.30
2023-03-15T09:48:47.190Z,2.78
2023-03-15T09:51:17.482Z,3.08
2023-03-15T09:53:49.524Z,3.67
2023-03-15T09:56:23.954Z,2.83
2023-03-15T09:58:53.268Z,2.92
2023-03-15T10:01:23.709Z,3.05
2023-03-15T10:03:53.045Z,2.72
2023-03-15T10:06:24.243Z,2.35
2023-03-15T10:08:55.633Z,2.42
2023-03-15T10:11:28.288Z,2.17
2023-03-15T10:14:04.226Z,2.20
2023-03-15T10:16:36.602Z,2.03
2023-03-15T10:19:08.044Z,1.75
2023-03-15T10:21:39.991Z,2.05
2023-03-15T10:24:11.634Z,2.33
2023-03-15T10:26:42.159Z,2.78
2023-03-15T10:29:13.152Z,2.58
2023-03-15T10:31:44.813Z,1.50
2023-03-15T10:34:13.670Z,1.88
2023-03-15T10:36:45.222Z,1.80
2023-03-15T10:39:14.402Z,2.00
2023-03-15T10:41:44.413Z,2.20
2023-03-15T10:44:14.745Z,1.52
2023-03-15T10:46:42.593Z,1.45
2023-03-15T10:49:12.969Z,1.55
2023-03-15T10:51:43.362Z,1.02
2023-03-15T10:54:16.381Z,2.22
2023-03-15T10:59:17.827Z,2.50
2023-03-15T11:01:48.197Z,1.95
2023-03-15T11:04:18.158Z,3.58
2023-03-15T11:06:47.594Z,2.00
2023-03-15T11:09:17.235Z,1.15
2023-03-15T11:11:55.960Z,1.50
2023-03-15T11:14:25.226Z,1.40
2023-03-15T11:16:54.548Z,2.60
2023-03-15T11:19:24.548Z,2.03
2023-03-15T11:21:52.640Z,1.50
2023-03-15T11:24:23.382Z,2.33
2023-03-15T11:26:53.650Z,1.98
2023-03-15T11:29:24.103Z,1.65
2023-03-15T11:31:53.668Z,5.68
2023-03-15T11:34:26.580Z,1.48
2023-03-15T11:37:07.680Z,1.13
2023-03-15T11:39:45.708Z,1.00
2023-03-15T11:42:15.897Z,0.57
2023-03-15T11:44:46.218Z,1.02
2023-03-15T11:47:19.098Z,1.10
2023-03-15T11:49:49.857Z,1.17
2023-03-15T11:52:18.092Z,1.10
2023-03-15T11:54:47.276Z,1.15
2023-03-15T11:57:33.679Z,0.80
2023-03-15T12:00:16.673Z,1.30
2023-03-15T12:02:50.924Z,1.30
2023-03-15T12:05:37.182Z,2.03
2023-03-15T12:08:17.839Z,1.42
2023-03-15T12:10:49.732Z,1.05
2023-03-15T12:13:18.967Z,2.10
2023-03-15T12:15:48.965Z,1.17
2023-03-15T12:18:27.012Z,1.40
2023-03-15T12:21:05.935Z,1.10
2023-03-15T12:23:38.329Z,1.17
2023-03-15T12:26:07.755Z,1.40
2023-03-15T12:28:36.397Z,1.10
2023-03-15T12:31:05.856Z,0.70
2023-03-15T12:33:44.614Z,0.77
2023-03-15T12:36:17.721Z,2.17
2023-03-15T12:41:35.988Z,1.80
2023-03-15T12:44:18.728Z,4.03
2023-03-15T12:46:59.950Z,1.90
2023-03-15T12:49:34.139Z,1.40
2023-03-15T12:52:03.062Z,1.20
2023-03-15T12:54:34.213Z,1.20
2023-03-15T12:57:03.468Z,1.30
2023-03-15T12:59:41.175Z,2.08
2023-03-15T13:02:24.899Z,1.55
2023-03-15T13:05:04.986Z,1.00
2023-03-15T13:07:50.688Z,1.38
2023-03-15T13:10:26.611Z,1.38
2023-03-15T13:12:57.201Z,3.00
2023-03-15T13:15:29.846Z,1.30
2023-03-15T13:17:58.598Z,2.08
2023-03-15T13:20:39.244Z,1.42
2023-03-15T13:23:12.403Z,1.33
2023-03-15T13:28:12.716Z,1.63
2023-03-15T13:30:41.116Z,1.45
2023-03-15T13:33:20.274Z,1.05
2023-03-15T13:35:54.663Z,1.20
2023-03-15T13:38:25.522Z,1.17
2023-03-15T13:40:53.322Z,1.20
2023-03-15T13:43:21.424Z,1.40
2023-03-15T13:45:50.240Z,1.30
2023-03-15T13:48:19.195Z,9.07
2023-03-15T13:50:50.601Z,1.88
2023-03-15T13:53:22.067Z,1.20
2023-03-15T13:55:50.956Z,1.42
2023-03-15T13:58:18.968Z,1.10
2023-03-15T14:00:47.204Z,1.40
2023-03-15T14:03:17.445Z,1.55
2023-03-15T14:05:46.524Z,1.40
2023-03-15T14:08:22.049Z,1.33
2023-03-15T14:10:59.976Z,1.10
2023-03-15T14:13:29.024Z,1.58
2023-03-15T14:15:57.883Z,1.17
2023-03-15T14:18:26.233Z,1.25
2023-03-15T14:20:55.294Z,1.30
2023-03-15T14:23:26.104Z,1.55
2023-03-15T14:25:54.443Z,1.40
2023-03-15T14:28:24.356Z,1.50
2023-03-15T14:30:53.714Z,1.27
2023-03-15T14:33:25.708Z,0.98
2023-03-15T14:35:55.454Z,1.00
2023-03-15T14:38:25.483Z,0.95
2023-03-15T14:40:53.873Z,1.20
2023-03-15T14:43:21.799Z,0.90
2023-03-15T14:45:50.395Z,1.38
2023-03-15T14:48:23.496Z,1.02
2023-03-15T14:53:20.764Z,1.33
2023-03-15T14:55:50.063Z,1.52
2023-03-15T14:58:18.926Z,1.25
2023-03-15T15:00:47.763Z,1.75
2023-03-15T15:03:18.010Z,1.55
2023-03-15T15:05:46.460Z,1.17
2023-03-15T15:08:15.364Z,1.35
2023-03-15T15:10:43.678Z,2.88
2023-03-15T15:13:15.877Z,1.30
2023-03-15T15:15:54.735Z,1.25
2023-03-15T15:18:24.859Z,1.90
2023-03-15T15:20:55.375Z,2.53
2023-03-15T15:23:24.733Z,1.73
2023-03-15T15:25:54.216Z,1.95
2023-03-15T15:28:33.884Z,1.30
2023-03-15T15:31:02.914Z,5.07
2023-03-15T15:33:31.657Z,1.63
2023-03-15T15:35:59.523Z,1.40
2023-03-15T15:38:32.251Z,1.20
2023-03-15T15:41:00.090Z,1.75
2023-03-15T15:43:31.266Z,1.10
2023-03-15T15:46:00.230Z,1.27
2023-03-15T15:48:28.367Z,1.10
2023-03-15T15:50:56.125Z,0.80
2023-03-15T15:53:24.022Z,1.20
2023-03-15T15:55:51.794Z,1.08
2023-03-15T15:58:19.780Z,1.05
2023-03-15T16:00:48.859Z,1.42
2023-03-15T16:03:16.766Z,1.10
2023-03-15T16:05:44.747Z,1.17
2023-03-15T16:08:18.264Z,20.50
2023-03-15T16:10:46.035Z,8.70
2023-03-15T16:13:13.791Z,2.10
2023-03-15T16:15:41.555Z,1.65
2023-03-15T16:18:12.113Z,1.48
2023-03-15T16:20:40.568Z,2.83
2023-03-15T16:23:11.989Z,2.15
2023-03-15T16:25:39.767Z,2.38
2023-03-15T16:28:07.879Z,1.77
2023-03-15T16:30:35.630Z,4.55
2023-03-15T16:33:03.459Z,3.00
2023-03-15T16:35:33.926Z,1.58
2023-03-15T16:38:02.046Z,1.20
2023-03-15T16:40:30.827Z,0.95
2023-03-15T16:42:58.652Z,2.65
2023-03-15T16:45:27.032Z,7.05
2023-03-15T16:47:56.426Z,2.75
2023-03-15T16:50:24.481Z,2.33
2023-03-15T16:52:55.707Z,1.85
2023-03-15T16:55:24.766Z,2.10
2023-03-15T16:57:52.603Z,2.65
2023-03-15T17:00:20.937Z,1.27
2023-03-15T17:02:49.566Z,3.88
2023-03-15T17:05:21.015Z,4.65
2023-03-15T17:07:49.674Z,4.32
2023-03-15T17:10:20.782Z,3.35
2023-03-15T17:12:49.187Z,3.55
2023-03-15T17:15:20.269Z,5.00
2023-03-15T17:17:48.610Z,5.68
2023-03-15T17:20:21.493Z,5.57
2023-03-15T17:25:17.211Z,5.93
2023-03-15T17:27:46.891Z,6.70
2023-03-15T17:30:18.290Z,4.53
2023-03-15T17:32:46.822Z,5.82
2023-03-15T17:35:14.929Z,5.38
2023-03-15T17:37:44.574Z,5.38
2023-03-15T17:40:18.187Z,4.40
2023-03-15T17:42:47.280Z,5.20
2023-03-15T17:45:20.773Z,3.60
2023-03-15T17:47:48.623Z,2.75
2023-03-15T17:50:16.531Z,2.53
2023-03-15T17:52:44.749Z,2.70
2023-03-15T17:55:16.246Z,2.78
2023-03-15T17:57:54.073Z,2.63
2023-03-15T18:00:24.861Z,2.97
2023-03-15T18:02:55.978Z,2.50
2023-03-15T18:05:25.246Z,3.60
2023-03-15T18:07:58.927Z,4.80
2023-03-15T18:10:28.442Z,5.10
2023-03-15T18:12:56.235Z,5.78
2023-03-15T18:15:28.177Z,3.55
2023-03-15T18:17:55.933Z,3.97
2023-03-15T18:20:24.411Z,4.93
2023-03-15T18:22:52.563Z,5.00
2023-03-15T18:25:21.199Z,7.00
2023-03-15T18:27:49.117Z,5.45
2023-03-15T18:30:18.545Z,4.82
2023-03-15T18:32:48.217Z,4.53
2023-03-15T18:35:17.226Z,4.53
2023-03-15T18:37:44.988Z,5.70
2023-03-15T18:40:14.408Z,5.30
2023-03-15T18:42:42.462Z,5.60
2023-03-15T18:45:16.740Z,5.68
2023-03-15T18:47:44.572Z,4.20
2023-03-15T18:50:14.272Z,5.97
2023-03-15T18:52:42.474Z,4.82
2023-03-15T18:55:12.090Z,5.05
2023-03-15T18:57:41.507Z,5.18
2023-03-15T19:00:13.780Z,4.75
2023-03-15T19:02:42.338Z,4.32
2023-03-15T19:05:11.728Z,3.47
2023-03-15T19:07:41.065Z,3.05
2023-03-15T19:10:10.872Z,3.47
2023-03-15T19:12:39.823Z,4.90
2023-03-15T19:15:10.611Z,4.55
2023-03-15T19:17:38.863Z,3.70
2023-03-15T19:20:07.694Z,3.90
2023-03-15T19:22:35.547Z,4.47
2023-03-15T19:25:04.869Z,4.22
2023-03-15T19:27:32.793Z,3.95
2023-03-15T19:30:00.672Z,3.80
2023-03-15T19:32:29.943Z,4.25
2023-03-15T19:34:58.078Z,4.28
2023-03-15T19:37:26.083Z,4.38
2023-03-15T19:39:54.427Z,4.10
2023-03-15T19:42:23.664Z,4.85
2023-03-15T19:44:51.682Z,4.40
2023-03-15T19:47:19.492Z,4.30
2023-03-15T19:49:47.496Z,4.32
2023-03-15T19:52:16.022Z,4.32
2023-03-15T19:54:43.849Z,4.28
2023-03-15T19:57:12.111Z,4.20
2023-03-15T19:59:41.750Z,4.00
2023-03-15T20:02:11.350Z,3.88
2023-03-15T20:04:39.376Z,5.43
2023-03-15T20:07:10.142Z,6.55
2023-03-15T20:09:38.901Z,4.97
2023-03-15T20:12:07.138Z,4.57
2023-03-15T20:14:35.240Z,5.32
2023-03-15T20:17:04.459Z,4.13
2023-03-15T20:19:32.364Z,4.75
2023-03-15T20:22:00.116Z,3.95
2023-03-15T20:24:28.073Z,4.30
2023-03-15T20:26:55.828Z,3.83
2023-03-15T20:29:23.814Z,4.22
2023-03-15T20:31:53.307Z,6.88
2023-03-15T20:34:22.984Z,8.25
2023-03-15T20:36:52.838Z,4.90
2023-03-15T20:39:25.383Z,3.90
2023-03-15T20:41:53.411Z,3.78
2023-03-15T20:44:21.194Z,3.15
2023-03-15T20:46:49.212Z,2.97
2023-03-15T20:49:17.686Z,3.83
2023-03-15T20:51:46.825Z,3.35
2023-03-15T20:54:14.603Z,2.95
2023-03-15T20:56:42.366Z,4.60
2023-03-15T20:59:10.128Z,3.78
2023-03-15T21:01:37.893Z,3.70
2023-03-15T21:04:05.735Z,3.90
2023-03-15T21:06:33.914Z,3.45
2023-03-15T21:09:03.418Z,3.00
2023-03-15T21:11:31.141Z,2.83
2023-03-15T21:13:59.094Z,3.55
2023-03-15T21:16:27.214Z,3.38
2023-03-15T21:18:55.056Z,4.70
2023-03-15T21:21:23.079Z,4.15
2023-03-15T21:23:51.023Z,3.80
2023-03-15T21:26:20.095Z,4.10
2023-03-15T21:28:47.870Z,4.07
2023-03-15T21:31:18.464Z,3.45
2023-03-15T21:33:46.240Z,4.00
2023-03-15T21:36:14.206Z,5.07
2023-03-15T21:38:42.210Z,5.20
2023-03-15T21:41:11.221Z,4.20
2023-03-15T21:43:40.628Z,5.07
2023-03-15T21:46:10.192Z,5.75
2023-03-15T21:48:38.184Z,6.70
2023-03-15T21:51:07.509Z,5.25
2023-03-15T21:53:35.684Z,5.47
2023-03-15T21:56:04.615Z,5.57
2023-03-15T21:58:32.563Z,4.85
2023-03-15T22:01:04.200Z,5.43
2023-03-15T22:03:32.886Z,5.32
2023-03-15T22:06:00.752Z,4.60
2023-03-15T22:08:29.064Z,5.40
2023-03-15T22:10:57.906Z,4.40
2023-03-15T22:13:26.362Z,4.10
2023-03-15T22:15:54.432Z,4.43
2023-03-15T22:18:23.727Z,4.45
2023-03-15T22:20:52.286Z,3.42
2023-03-15T22:23:20.445Z,3.90
2023-03-15T22:25:48.193Z,4.13
2023-03-15T22:28:16.540Z,3.83
2023-03-15T22:30:47.422Z,3.35
2023-03-15T22:33:15.345Z,3.00
2023-03-15T22:35:44.561Z,3.33
2023-03-15T22:38:12.562Z,3.30
2023-03-15T22:40:41.015Z,2.92
2023-03-15T22:43:09.229Z,3.70
2023-03-15T22:45:37.256Z,3.20
2023-03-15T22:48:05.511Z,3.70
2023-03-15T22:50:33.290Z,3.22
2023-03-15T22:53:02.434Z,4.18
2023-03-15T22:55:30.413Z,4.07
2023-03-15T22:57:58.150Z,3.80
2023-03-15T23:00:26.315Z,3.90
2023-03-15T23:02:54.230Z,4.20
2023-03-15T23:05:22.185Z,4.85
2023-03-15T23:07:49.955Z,4.00
2023-03-15T23:10:19.116Z,4.32
2023-03-15T23:12:46.908Z,3.90
2023-03-15T23:15:14.769Z,4.40
2023-03-15T23:17:46.160Z,3.67
2023-03-15T23:20:14.833Z,4.20
2023-03-15T23:22:42.986Z,4.72
2023-03-15T23:25:11.545Z,4.10
2023-03-15T23:27:40.949Z,4.57
2023-03-15T23:30:10.298Z,4.28
2023-03-15T23:32:38.144Z,4.15
2023-03-15T23:35:07.130Z,5.22
2023-03-15T23:37:35.143Z,3.95
2023-03-15T23:40:05.786Z,4.45
2023-03-15T23:42:33.746Z,4.88
2023-03-15T23:45:02.797Z,4.60
2023-03-15T23:47:31.747Z,4.43
2023-03-15T23:49:59.502Z,4.47
2023-03-15T23:52:27.468Z,4.68
2023-03-15T23:54:55.638Z,5.53
2023-03-15T23:57:23.784Z,4.45
2023-03-15T23:59:51.798Z,4.88
